sensor_id;sensor_type;location;lat;lon;timestamp;pressure;altitude;pressure_sealevel;temperature
62930;BMP280;49036;42.782;23.108;2022-11-11T00:01:46;78908.44;;;6.45
62930;BMP280;49036;42.782;23.108;2022-11-11T00:04:11;78917.00;;;6.43
62930;BMP280;49036;42.782;23.108;2022-11-11T00:06:37;79234.44;;;6.47
62930;BMP280;49036;42.782;23.108;2022-11-11T00:09:02;78346.28;;;6.49
62930;BMP280;49036;42.782;23.108;2022-11-11T00:11:28;78157.59;;;6.43
62930;BMP280;49036;42.782;23.108;2022-11-11T00:13:54;78869.13;;;6.46
62930;BMP280;49036;42.782;23.108;2022-11-11T00:16:19;78944.91;;;6.57
62930;BMP280;49036;42.782;23.108;2022-11-11T00:18:46;79001.31;;;6.51
62930;BMP280;49036;42.782;23.108;2022-11-11T00:21:30;78934.25;;;6.55
62930;BMP280;49036;42.782;23.108;2022-11-11T00:24:28;79151.53;;;6.51
62930;BMP280;49036;42.782;23.108;2022-11-11T00:27:13;78334.56;;;6.42
62930;BMP280;49036;42.782;23.108;2022-11-11T00:29:39;78629.38;;;6.45
62930;BMP280;49036;42.782;23.108;2022-11-11T00:32:06;79557.47;;;6.46
62930;BMP280;49036;42.782;23.108;2022-11-11T00:34:54;79179.03;;;6.42
62930;BMP280;49036;42.782;23.108;2022-11-11T00:37:39;78950.59;;;6.34
62930;BMP280;49036;42.782;23.108;2022-11-11T00:40:06;79331.38;;;6.27
62930;BMP280;49036;42.782;23.108;2022-11-11T00:42:32;80698.91;;;6.13
62930;BMP280;49036;42.782;23.108;2022-11-11T00:44:57;80491.47;;;6.16
62930;BMP280;49036;42.782;23.108;2022-11-11T00:47:23;80524.91;;;6.11
62930;BMP280;49036;42.782;23.108;2022-11-11T00:50:15;79882.72;;;6.11
62930;BMP280;49036;42.782;23.108;2022-11-11T00:52:59;80813.47;;;6.12
62930;BMP280;49036;42.782;23.108;2022-11-11T00:55:25;80297.66;;;6.14
62930;BMP280;49036;42.782;23.108;2022-11-11T00:57:50;80211.78;;;6.16
62930;BMP280;49036;42.782;23.108;2022-11-11T01:00:16;80323.59;;;6.15
62930;BMP280;49036;42.782;23.108;2022-11-11T01:02:41;81484.75;;;6.18
62930;BMP280;49036;42.782;23.108;2022-11-11T01:05:07;81097.34;;;6.18
62930;BMP280;49036;42.782;23.108;2022-11-11T01:07:32;81882.25;;;6.27
62930;BMP280;49036;42.782;23.108;2022-11-11T01:09:58;83675.06;;;6.23
62930;BMP280;49036;42.782;23.108;2022-11-11T01:12:23;83037.06;;;6.20
62930;BMP280;49036;42.782;23.108;2022-11-11T01:14:49;84280.41;;;6.15
62930;BMP280;49036;42.782;23.108;2022-11-11T01:17:14;83962.19;;;6.11
62930;BMP280;49036;42.782;23.108;2022-11-11T01:19:40;82748.56;;;6.08
62930;BMP280;49036;42.782;23.108;2022-11-11T01:22:06;84369.91;;;6.01
62930;BMP280;49036;42.782;23.108;2022-11-11T01:24:31;82638.13;;;6.01
62930;BMP280;49036;42.782;23.108;2022-11-11T01:26:57;84819.63;;;5.99
62930;BMP280;49036;42.782;23.108;2022-11-11T01:29:22;84743.03;;;5.95
62930;BMP280;49036;42.782;23.108;2022-11-11T01:31:48;84276.09;;;5.88
62930;BMP280;49036;42.782;23.108;2022-11-11T01:34:13;84796.88;;;6.00
62930;BMP280;49036;42.782;23.108;2022-11-11T01:36:39;83912.44;;;5.98
62930;BMP280;49036;42.782;23.108;2022-11-11T01:39:04;85525.47;;;5.97
62930;BMP280;49036;42.782;23.108;2022-11-11T01:41:32;84616.47;;;6.09
62930;BMP280;49036;42.782;23.108;2022-11-11T01:46:44;85650.19;;;6.02
62930;BMP280;49036;42.782;23.108;2022-11-11T01:52:14;85695.38;;;5.90
62930;BMP280;49036;42.782;23.108;2022-11-11T01:57:37;84904.84;;;5.63
62930;BMP280;49036;42.782;23.108;2022-11-11T02:00:11;84400.50;;;5.65
62930;BMP280;49036;42.782;23.108;2022-11-11T02:02:38;85100.13;;;5.67
62930;BMP280;49036;42.782;23.108;2022-11-11T02:05:09;85718.47;;;5.66
62930;BMP280;49036;42.782;23.108;2022-11-11T02:07:55;85521.84;;;5.73
62930;BMP280;49036;42.782;23.108;2022-11-11T02:10:24;85263.16;;;5.72
62930;BMP280;49036;42.782;23.108;2022-11-11T02:12:51;85879.31;;;5.75
62930;BMP280;49036;42.782;23.108;2022-11-11T02:15:55;87327.03;;;5.90
62930;BMP280;49036;42.782;23.108;2022-11-11T02:18:20;89713.91;;;6.03
62930;BMP280;49036;42.782;23.108;2022-11-11T02:20:46;89943.47;;;5.98
62930;BMP280;49036;42.782;23.108;2022-11-11T02:23:50;90340.13;;;5.94
62930;BMP280;49036;42.782;23.108;2022-11-11T02:26:17;90190.72;;;5.88
62930;BMP280;49036;42.782;23.108;2022-11-11T02:28:43;90123.72;;;5.75
62930;BMP280;49036;42.782;23.108;2022-11-11T02:31:09;89902.06;;;5.60
62930;BMP280;49036;42.782;23.108;2022-11-11T02:33:35;90112.31;;;5.57
62930;BMP280;49036;42.782;23.108;2022-11-11T02:36:01;90765.56;;;5.48
62930;BMP280;49036;42.782;23.108;2022-11-11T02:38:28;90261.44;;;5.57
62930;BMP280;49036;42.782;23.108;2022-11-11T02:40:54;90454.09;;;5.65
62930;BMP280;49036;42.782;23.108;2022-11-11T02:43:38;90874.47;;;5.75
62930;BMP280;49036;42.782;23.108;2022-11-11T02:46:05;91658.53;;;6.04
62930;BMP280;49036;42.782;23.108;2022-11-11T02:48:31;92241.66;;;6.08
62930;BMP280;49036;42.782;23.108;2022-11-11T02:50:56;92187.50;;;6.13
62930;BMP280;49036;42.782;23.108;2022-11-11T02:53:22;92500.47;;;6.08
62930;BMP280;49036;42.782;23.108;2022-11-11T02:55:48;92805.63;;;6.21
62930;BMP280;49036;42.782;23.108;2022-11-11T02:58:14;93066.25;;;6.36
62930;BMP280;49036;42.782;23.108;2022-11-11T03:00:40;93488.91;;;6.50
62930;BMP280;49036;42.782;23.108;2022-11-11T03:03:07;93691.47;;;6.66
62930;BMP280;49036;42.782;23.108;2022-11-11T03:05:33;93994.63;;;6.82
62930;BMP280;49036;42.782;23.108;2022-11-11T03:07:59;93947.09;;;6.98
62930;BMP280;49036;42.782;23.108;2022-11-11T03:10:24;94551.72;;;7.10
62930;BMP280;49036;42.782;23.108;2022-11-11T03:12:50;94666.94;;;7.17
62930;BMP280;49036;42.782;23.108;2022-11-11T03:15:15;94686.47;;;7.27
62930;BMP280;49036;42.782;23.108;2022-11-11T03:17:41;94713.00;;;7.30
62930;BMP280;49036;42.782;23.108;2022-11-11T03:20:12;94737.13;;;7.37
62930;BMP280;49036;42.782;23.108;2022-11-11T03:23:12;94716.69;;;7.40
62930;BMP280;49036;42.782;23.108;2022-11-11T03:25:41;94693.31;;;7.34
62930;BMP280;49036;42.782;23.108;2022-11-11T03:28:11;94648.91;;;7.24
62930;BMP280;49036;42.782;23.108;2022-11-11T03:30:38;94613.19;;;7.18
62930;BMP280;49036;42.782;23.108;2022-11-11T03:33:04;94618.56;;;7.32
62930;BMP280;49036;42.782;23.108;2022-11-11T03:35:31;94637.72;;;7.37
62930;BMP280;49036;42.782;23.108;2022-11-11T03:37:56;94620.97;;;7.43
62930;BMP280;49036;42.782;23.108;2022-11-11T03:40:47;94617.28;;;7.48
62930;BMP280;49036;42.782;23.108;2022-11-11T03:43:15;94634.25;;;7.52
62930;BMP280;49036;42.782;23.108;2022-11-11T03:45:41;94625.41;;;7.53
62930;BMP280;49036;42.782;23.108;2022-11-11T03:48:07;94611.41;;;7.59
62930;BMP280;49036;42.782;23.108;2022-11-11T03:50:33;94583.44;;;7.63
62930;BMP280;49036;42.782;23.108;2022-11-11T03:52:59;94576.97;;;7.68
62930;BMP280;49036;42.782;23.108;2022-11-11T03:55:25;94574.75;;;7.74
62930;BMP280;49036;42.782;23.108;2022-11-11T03:57:50;94574.03;;;7.73
62930;BMP280;49036;42.782;23.108;2022-11-11T04:00:19;94569.25;;;7.74
62930;BMP280;49036;42.782;23.108;2022-11-11T04:02:45;94528.34;;;7.72
62930;BMP280;49036;42.782;23.108;2022-11-11T04:05:30;94558.94;;;7.82
62930;BMP280;49036;42.782;23.108;2022-11-11T04:08:16;94547.31;;;7.83
62930;BMP280;49036;42.782;23.108;2022-11-11T04:11:27;94541.06;;;7.83
62930;BMP280;49036;42.782;23.108;2022-11-11T04:13:56;94501.44;;;7.80
62930;BMP280;49036;42.782;23.108;2022-11-11T04:16:42;94497.41;;;7.81
62930;BMP280;49036;42.782;23.108;2022-11-11T04:19:08;94506.03;;;7.85
62930;BMP280;49036;42.782;23.108;2022-11-11T04:21:52;94488.53;;;7.90
62930;BMP280;49036;42.782;23.108;2022-11-11T04:24:19;94520.75;;;7.96
62930;BMP280;49036;42.782;23.108;2022-11-11T04:27:06;94508.00;;;8.00
62930;BMP280;49036;42.782;23.108;2022-11-11T04:29:32;94512.81;;;8.00
62930;BMP280;49036;42.782;23.108;2022-11-11T04:32:03;94485.22;;;7.92
62930;BMP280;49036;42.782;23.108;2022-11-11T04:34:50;94433.44;;;7.85
62930;BMP280;49036;42.782;23.108;2022-11-11T04:37:17;94433.84;;;7.81
62930;BMP280;49036;42.782;23.108;2022-11-11T04:39:42;94456.13;;;7.76
62930;BMP280;49036;42.782;23.108;2022-11-11T04:42:27;94396.88;;;7.69
62930;BMP280;49036;42.782;23.108;2022-11-11T04:44:53;94386.75;;;7.64
62930;BMP280;49036;42.782;23.108;2022-11-11T04:47:37;94353.63;;;7.56
62930;BMP280;49036;42.782;23.108;2022-11-11T04:50:04;94297.88;;;7.50
62930;BMP280;49036;42.782;23.108;2022-11-11T04:52:30;94250.00;;;7.48
62930;BMP280;49036;42.782;23.108;2022-11-11T04:54:56;94261.78;;;7.48
62930;BMP280;49036;42.782;23.108;2022-11-11T04:57:41;94289.06;;;7.44
62930;BMP280;49036;42.782;23.108;2022-11-11T05:00:09;94273.81;;;7.43
62930;BMP280;49036;42.782;23.108;2022-11-11T05:02:36;94237.38;;;7.37
62930;BMP280;49036;42.782;23.108;2022-11-11T05:05:21;94243.63;;;7.38
62930;BMP280;49036;42.782;23.108;2022-11-11T05:07:46;94194.47;;;7.36
62930;BMP280;49036;42.782;23.108;2022-11-11T05:10:31;94212.19;;;7.33
62930;BMP280;49036;42.782;23.108;2022-11-11T05:12:56;94205.38;;;7.34
62930;BMP280;49036;42.782;23.108;2022-11-11T05:15:42;94163.22;;;7.34
62930;BMP280;49036;42.782;23.108;2022-11-11T05:18:26;94164.84;;;7.37
62930;BMP280;49036;42.782;23.108;2022-11-11T05:21:15;94192.63;;;7.39
62930;BMP280;49036;42.782;23.108;2022-11-11T05:23:45;94191.50;;;7.42
62930;BMP280;49036;42.782;23.108;2022-11-11T05:26:29;94200.00;;;7.44
62930;BMP280;49036;42.782;23.108;2022-11-11T05:28:55;94167.91;;;7.48
62930;BMP280;49036;42.782;23.108;2022-11-11T05:31:20;94220.72;;;7.52
62930;BMP280;49036;42.782;23.108;2022-11-11T05:33:46;94220.72;;;7.52
62930;BMP280;49036;42.782;23.108;2022-11-11T05:36:11;94201.75;;;7.56
62930;BMP280;49036;42.782;23.108;2022-11-11T05:38:37;94128.13;;;7.51
62930;BMP280;49036;42.782;23.108;2022-11-11T05:41:03;94193.13;;;7.45
62930;BMP280;49036;42.782;23.108;2022-11-11T05:43:28;94144.97;;;7.38
62930;BMP280;49036;42.782;23.108;2022-11-11T05:45:54;94161.03;;;7.32
62930;BMP280;49036;42.782;23.108;2022-11-11T05:48:19;94108.56;;;7.32
62930;BMP280;49036;42.782;23.108;2022-11-11T05:50:45;94124.41;;;7.32
62930;BMP280;49036;42.782;23.108;2022-11-11T05:53:10;94133.06;;;7.28
62930;BMP280;49036;42.782;23.108;2022-11-11T05:55:36;94153.66;;;7.27
62930;BMP280;49036;42.782;23.108;2022-11-11T05:58:01;94148.69;;;7.33
62930;BMP280;49036;42.782;23.108;2022-11-11T06:00:27;94174.66;;;7.30
62930;BMP280;49036;42.782;23.108;2022-11-11T06:02:52;94173.00;;;7.27
62930;BMP280;49036;42.782;23.108;2022-11-11T06:05:18;94139.31;;;7.28
62930;BMP280;49036;42.782;23.108;2022-11-11T06:07:44;94161.59;;;7.30
62930;BMP280;49036;42.782;23.108;2022-11-11T06:10:09;94157.16;;;7.27
62930;BMP280;49036;42.782;23.108;2022-11-11T06:12:54;94090.03;;;7.25
62930;BMP280;49036;42.782;23.108;2022-11-11T06:15:38;94106.56;;;7.25
62930;BMP280;49036;42.782;23.108;2022-11-11T06:18:04;94032.59;;;7.23
62930;BMP280;49036;42.782;23.108;2022-11-11T06:20:31;94096.06;;;7.23
62930;BMP280;49036;42.782;23.108;2022-11-11T06:22:56;94049.59;;;7.20
62930;BMP280;49036;42.782;23.108;2022-11-11T06:25:27;94141.97;;;7.19
62930;BMP280;49036;42.782;23.108;2022-11-11T06:28:12;94050.69;;;7.17
62930;BMP280;49036;42.782;23.108;2022-11-11T06:30:38;94073.69;;;7.19
62930;BMP280;49036;42.782;23.108;2022-11-11T06:33:05;94079.38;;;7.21
62930;BMP280;49036;42.782;23.108;2022-11-11T06:35:38;94118.53;;;7.27
62930;BMP280;49036;42.782;23.108;2022-11-11T06:38:05;94152.75;;;7.32
62930;BMP280;49036;42.782;23.108;2022-11-11T06:40:31;94191.34;;;7.40
62930;BMP280;49036;42.782;23.108;2022-11-11T06:42:58;94279.28;;;7.51
62930;BMP280;49036;42.782;23.108;2022-11-11T06:45:25;94356.00;;;7.60
62930;BMP280;49036;42.782;23.108;2022-11-11T06:47:51;94372.53;;;7.75
62930;BMP280;49036;42.782;23.108;2022-11-11T06:50:17;94527.94;;;7.91
62930;BMP280;49036;42.782;23.108;2022-11-11T06:52:43;94550.22;;;8.08
62930;BMP280;49036;42.782;23.108;2022-11-11T06:55:08;94630.56;;;8.10
62930;BMP280;49036;42.782;23.108;2022-11-11T06:57:35;94581.50;;;8.18
62930;BMP280;49036;42.782;23.108;2022-11-11T07:00:02;94607.47;;;8.23
62930;BMP280;49036;42.782;23.108;2022-11-11T07:02:28;94586.25;;;8.33
62930;BMP280;49036;42.782;23.108;2022-11-11T07:04:54;94504.59;;;8.25
62930;BMP280;49036;42.782;23.108;2022-11-11T07:07:22;94467.19;;;8.31
62930;BMP280;49036;42.782;23.108;2022-11-11T07:09:48;94414.25;;;8.35
62930;BMP280;49036;42.782;23.108;2022-11-11T07:12:13;94292.91;;;8.39
62930;BMP280;49036;42.782;23.108;2022-11-11T07:14:39;94325.13;;;8.44
62930;BMP280;49036;42.782;23.108;2022-11-11T07:17:05;94278.75;;;8.52
62930;BMP280;49036;42.782;23.108;2022-11-11T07:19:30;94230.78;;;8.57
62930;BMP280;49036;42.782;23.108;2022-11-11T07:21:56;94157.81;;;8.52
62930;BMP280;49036;42.782;23.108;2022-11-11T07:24:21;94039.09;;;8.64
62930;BMP280;49036;42.782;23.108;2022-11-11T07:26:47;93987.47;;;8.76
62930;BMP280;49036;42.782;23.108;2022-11-11T07:29:13;93802.56;;;9.02
62930;BMP280;49036;42.782;23.108;2022-11-11T07:31:40;93911.25;;;9.02
62930;BMP280;49036;42.782;23.108;2022-11-11T07:34:06;93780.84;;;8.89
62930;BMP280;49036;42.782;23.108;2022-11-11T07:36:32;93636.22;;;8.88
62930;BMP280;49036;42.782;23.108;2022-11-11T07:38:58;91803.69;;;8.71
62930;BMP280;49036;42.782;23.108;2022-11-11T07:41:23;93442.53;;;8.57
62930;BMP280;49036;42.782;23.108;2022-11-11T07:43:49;93057.09;;;8.62
62930;BMP280;49036;42.782;23.108;2022-11-11T07:46:15;93410.13;;;8.79
62930;BMP280;49036;42.782;23.108;2022-11-11T07:48:41;93304.78;;;9.29
62930;BMP280;49036;42.782;23.108;2022-11-11T07:51:06;93732.63;;;9.81
62930;BMP280;49036;42.782;23.108;2022-11-11T07:53:32;93909.09;;;10.07
62930;BMP280;49036;42.782;23.108;2022-11-11T07:55:57;93921.00;;;10.29
62930;BMP280;49036;42.782;23.108;2022-11-11T07:58:23;93833.19;;;10.43
62930;BMP280;49036;42.782;23.108;2022-11-11T08:00:49;93680.03;;;10.45
62930;BMP280;49036;42.782;23.108;2022-11-11T08:03:14;93414.22;;;10.41
62930;BMP280;49036;42.782;23.108;2022-11-11T08:05:40;93536.25;;;10.86
62930;BMP280;49036;42.782;23.108;2022-11-11T08:08:07;93400.31;;;11.11
62930;BMP280;49036;42.782;23.108;2022-11-11T08:10:33;93169.94;;;10.62
62930;BMP280;49036;42.782;23.108;2022-11-11T08:12:59;92530.25;;;10.57
62930;BMP280;49036;42.782;23.108;2022-11-11T08:15:43;92050.19;;;10.49
62930;BMP280;49036;42.782;23.108;2022-11-11T08:18:09;91973.50;;;10.56
62930;BMP280;49036;42.782;23.108;2022-11-11T08:20:35;91442.22;;;10.21
62930;BMP280;49036;42.782;23.108;2022-11-11T08:23:00;91561.72;;;10.55
62930;BMP280;49036;42.782;23.108;2022-11-11T08:25:28;91464.97;;;10.41
62930;BMP280;49036;42.782;23.108;2022-11-11T08:28:03;91389.53;;;10.45
62930;BMP280;49036;42.782;23.108;2022-11-11T08:30:30;91837.00;;;10.99
62930;BMP280;49036;42.782;23.108;2022-11-11T08:33:00;91608.63;;;10.94
62930;BMP280;49036;42.782;23.108;2022-11-11T08:35:26;91307.09;;;10.73
62930;BMP280;49036;42.782;23.108;2022-11-11T08:37:53;90757.38;;;10.73
62930;BMP280;49036;42.782;23.108;2022-11-11T08:40:19;90694.63;;;10.93
62930;BMP280;49036;42.782;23.108;2022-11-11T08:42:44;90051.78;;;10.55
62930;BMP280;49036;42.782;23.108;2022-11-11T08:45:10;89884.16;;;10.62
62930;BMP280;49036;42.782;23.108;2022-11-11T08:47:36;90200.28;;;10.95
62930;BMP280;49036;42.782;23.108;2022-11-11T08:50:04;90436.19;;;11.13
62930;BMP280;49036;42.782;23.108;2022-11-11T08:52:29;90286.16;;;10.83
62930;BMP280;49036;42.782;23.108;2022-11-11T08:54:55;89623.00;;;10.46
62930;BMP280;49036;42.782;23.108;2022-11-11T08:57:21;88280.19;;;10.25
62930;BMP280;49036;42.782;23.108;2022-11-11T08:59:46;87691.00;;;10.36
62930;BMP280;49036;42.782;23.108;2022-11-11T09:02:12;88465.41;;;10.73
62930;BMP280;49036;42.782;23.108;2022-11-11T09:04:39;89274.19;;;11.03
62930;BMP280;49036;42.782;23.108;2022-11-11T09:07:05;89666.47;;;11.26
62930;BMP280;49036;42.782;23.108;2022-11-11T09:09:30;90045.88;;;12.05
62930;BMP280;49036;42.782;23.108;2022-11-11T09:11:56;90284.09;;;12.05
62930;BMP280;49036;42.782;23.108;2022-11-11T09:14:21;89160.44;;;11.69
62930;BMP280;49036;42.782;23.108;2022-11-11T09:16:47;89552.22;;;12.02
62930;BMP280;49036;42.782;23.108;2022-11-11T09:19:12;89288.50;;;11.91
62930;BMP280;49036;42.782;23.108;2022-11-11T09:21:37;88349.25;;;11.76
62930;BMP280;49036;42.782;23.108;2022-11-11T09:24:03;88751.91;;;11.64
62930;BMP280;49036;42.782;23.108;2022-11-11T09:26:29;88079.00;;;11.67
62930;BMP280;49036;42.782;23.108;2022-11-11T09:28:54;88904.78;;;12.24
62930;BMP280;49036;42.782;23.108;2022-11-11T09:31:22;89679.16;;;12.21
62930;BMP280;49036;42.782;23.108;2022-11-11T09:33:48;89282.59;;;12.20
62930;BMP280;49036;42.782;23.108;2022-11-11T09:36:14;89470.78;;;12.23
62930;BMP280;49036;42.782;23.108;2022-11-11T09:38:39;86743.09;;;12.02
62930;BMP280;49036;42.782;23.108;2022-11-11T09:44:25;86432.28;;;11.55
62930;BMP280;49036;42.782;23.108;2022-11-11T09:47:13;85375.78;;;11.24
62930;BMP280;49036;42.782;23.108;2022-11-11T09:55:05;85974.53;;;11.61
62930;BMP280;49036;42.782;23.108;2022-11-11T09:57:39;86021.94;;;11.57
62930;BMP280;49036;42.782;23.108;2022-11-11T10:00:17;85322.00;;;11.77
62930;BMP280;49036;42.782;23.108;2022-11-11T10:02:50;86860.16;;;11.64
62930;BMP280;49036;42.782;23.108;2022-11-11T10:05:51;85747.03;;;11.44
62930;BMP280;49036;42.782;23.108;2022-11-11T10:08:25;85353.81;;;11.31
62930;BMP280;49036;42.782;23.108;2022-11-11T10:10:53;83737.28;;;10.96
62930;BMP280;49036;42.782;23.108;2022-11-11T10:13:29;82781.59;;;10.71
62930;BMP280;49036;42.782;23.108;2022-11-11T10:21:24;74812.41;;;10.55
62930;BMP280;49036;42.782;23.108;2022-11-11T10:23:54;79950.78;;;10.43
62930;BMP280;49036;42.782;23.108;2022-11-11T10:26:37;71288.47;;;10.39
62930;BMP280;49036;42.782;23.108;2022-11-11T10:29:07;71966.88;;;10.27
62930;BMP280;49036;42.782;23.108;2022-11-11T10:31:39;71006.84;;;10.33
62930;BMP280;49036;42.782;23.108;2022-11-11T10:34:10;70695.81;;;10.35
62930;BMP280;49036;42.782;23.108;2022-11-11T10:36:49;68833.25;;;10.24
62930;BMP280;49036;42.782;23.108;2022-11-11T10:39:17;65342.06;;;10.25
62930;BMP280;49036;42.782;23.108;2022-11-11T10:41:49;68553.84;;;10.25
62930;BMP280;49036;42.782;23.108;2022-11-11T10:44:30;68539.75;;;10.38
62930;BMP280;49036;42.782;23.108;2022-11-11T10:50:26;70374.00;;;10.46
62930;BMP280;49036;42.782;23.108;2022-11-11T10:52:59;66778.28;;;10.50
62930;BMP280;49036;42.782;23.108;2022-11-11T10:55:39;67176.38;;;10.61
62930;BMP280;49036;42.782;23.108;2022-11-11T10:58:15;67031.19;;;10.67
62930;BMP280;49036;42.782;23.108;2022-11-11T11:00:42;68236.38;;;10.87
62930;BMP280;49036;42.782;23.108;2022-11-11T11:03:37;67171.22;;;10.81
62930;BMP280;49036;42.782;23.108;2022-11-11T11:06:27;55280.38;;;10.88
62930;BMP280;49036;42.782;23.108;2022-11-11T11:09:07;70722.50;;;11.19
62930;BMP280;49036;42.782;23.108;2022-11-11T11:11:38;74566.72;;;11.27
62930;BMP280;49036;42.782;23.108;2022-11-11T11:14:12;74275.91;;;11.86
62930;BMP280;49036;42.782;23.108;2022-11-11T11:16:46;76260.75;;;11.77
62930;BMP280;49036;42.782;23.108;2022-11-11T11:21:57;75503.16;;;11.20
62930;BMP280;49036;42.782;23.108;2022-11-11T11:24:31;74900.75;;;11.12
62930;BMP280;49036;42.782;23.108;2022-11-11T11:27:02;73853.41;;;11.41
62930;BMP280;49036;42.782;23.108;2022-11-11T11:29:32;76155.38;;;12.16
62930;BMP280;49036;42.782;23.108;2022-11-11T11:34:52;78993.31;;;12.25
62930;BMP280;49036;42.782;23.108;2022-11-11T11:37:20;75691.19;;;12.09
62930;BMP280;49036;42.782;23.108;2022-11-11T11:39:47;74445.72;;;11.97
62930;BMP280;49036;42.782;23.108;2022-11-11T11:42:31;74128.22;;;12.07
62930;BMP280;49036;42.782;23.108;2022-11-11T11:45:14;72987.94;;;12.36
62930;BMP280;49036;42.782;23.108;2022-11-11T11:47:49;76646.03;;;12.48
62930;BMP280;49036;42.782;23.108;2022-11-11T11:50:39;75075.25;;;12.21
62930;BMP280;49036;42.782;23.108;2022-11-11T11:59:20;71416.94;;;12.36
62930;BMP280;49036;42.782;23.108;2022-11-11T12:10:38;75007.69;;;12.18
62930;BMP280;49036;42.782;23.108;2022-11-11T12:27:36;72976.63;;;11.56
62930;BMP280;49036;42.782;23.108;2022-11-11T12:30:13;72291.84;;;11.58
62930;BMP280;49036;42.782;23.108;2022-11-11T12:38:30;68277.09;;;11.30
62930;BMP280;49036;42.782;23.108;2022-11-11T12:41:23;60531.50;;;11.21
62930;BMP280;49036;42.782;23.108;2022-11-11T12:43:57;60866.13;;;11.42
62930;BMP280;49036;42.782;23.108;2022-11-11T12:46:52;60605.69;;;11.40
62930;BMP280;49036;42.782;23.108;2022-11-11T12:52:47;58114.47;;;11.31
62930;BMP280;49036;42.782;23.108;2022-11-11T13:07:01;62933.06;;;11.52
62930;BMP280;49036;42.782;23.108;2022-11-11T13:15:21;62303.31;;;11.15
62930;BMP280;49036;42.782;23.108;2022-11-11T13:17:47;64385.78;;;11.03
62930;BMP280;49036;42.782;23.108;2022-11-11T13:20:16;58444.72;;;10.97
62930;BMP280;49036;42.782;23.108;2022-11-11T13:22:43;59017.78;;;10.90
62930;BMP280;49036;42.782;23.108;2022-11-11T13:25:17;58322.25;;;10.88
62930;BMP280;49036;42.782;23.108;2022-11-11T13:27:59;56081.25;;;10.83
62930;BMP280;49036;42.782;23.108;2022-11-11T13:33:04;54317.47;;;10.68
62930;BMP280;49036;42.782;23.108;2022-11-11T13:35:37;55388.22;;;10.65
62930;BMP280;49036;42.782;23.108;2022-11-11T13:38:08;52053.09;;;10.59
62930;BMP280;49036;42.782;23.108;2022-11-11T13:40:41;51427.41;;;10.48
62930;BMP280;49036;42.782;23.108;2022-11-11T13:43:29;55602.09;;;10.35
62930;BMP280;49036;42.782;23.108;2022-11-11T13:45:57;45827.63;;;10.32
62930;BMP280;49036;42.782;23.108;2022-11-11T13:48:27;49438.72;;;10.29
62930;BMP280;49036;42.782;23.108;2022-11-11T13:53:36;51052.41;;;10.25
62930;BMP280;49036;42.782;23.108;2022-11-11T13:56:03;54382.34;;;10.22
62930;BMP280;49036;42.782;23.108;2022-11-11T13:58:39;47383.06;;;10.17
62930;BMP280;49036;42.782;23.108;2022-11-11T14:01:10;50998.47;;;10.18
62930;BMP280;49036;42.782;23.108;2022-11-11T14:13:48;47101.50;;;10.07
62930;BMP280;49036;42.782;23.108;2022-11-11T14:21:57;45114.09;;;10.03
62930;BMP280;49036;42.782;23.108;2022-11-11T14:27:15;46304.09;;;9.97
62930;BMP280;49036;42.782;23.108;2022-11-11T14:29:52;45713.06;;;9.94
62930;BMP280;49036;42.782;23.108;2022-11-11T14:32:54;46537.56;;;9.96
62930;BMP280;49036;42.782;23.108;2022-11-11T14:35:36;53533.94;;;9.92
62930;BMP280;49036;42.782;23.108;2022-11-11T14:40:51;56724.41;;;9.85
62930;BMP280;49036;42.782;23.108;2022-11-11T14:43:40;52694.06;;;9.80
62930;BMP280;49036;42.782;23.108;2022-11-11T14:46:10;57656.31;;;9.73
62930;BMP280;49036;42.782;23.108;2022-11-11T14:51:48;55452.34;;;9.64
62930;BMP280;49036;42.782;23.108;2022-11-11T14:54:35;55062.13;;;9.58
62930;BMP280;49036;42.782;23.108;2022-11-11T14:57:06;53773.66;;;9.59
62930;BMP280;49036;42.782;23.108;2022-11-11T14:59:33;59096.38;;;9.52
62930;BMP280;49036;42.782;23.108;2022-11-11T15:02:00;59152.53;;;9.50
62930;BMP280;49036;42.782;23.108;2022-11-11T15:04:26;63832.53;;;9.43
62930;BMP280;49036;42.782;23.108;2022-11-11T15:07:01;58983.81;;;9.38
62930;BMP280;49036;42.782;23.108;2022-11-11T15:10:03;60987.75;;;9.30
62930;BMP280;49036;42.782;23.108;2022-11-11T15:12:51;64468.09;;;9.26
62930;BMP280;49036;42.782;23.108;2022-11-11T15:15:25;60757.44;;;9.23
62930;BMP280;49036;42.782;23.108;2022-11-11T15:21:12;49899.03;;;9.23
62930;BMP280;49036;42.782;23.108;2022-11-11T15:23:49;47293.81;;;9.23
62930;BMP280;49036;42.782;23.108;2022-11-11T15:29:19;52302.19;;;9.16
62930;BMP280;49036;42.782;23.108;2022-11-11T15:32:10;50306.81;;;9.10
62930;BMP280;49036;42.782;23.108;2022-11-11T15:34:43;57398.25;;;9.06
62930;BMP280;49036;42.782;23.108;2022-11-11T15:37:12;51267.38;;;9.00
62930;BMP280;49036;42.782;23.108;2022-11-11T15:39:40;51804.09;;;9.03
62930;BMP280;49036;42.782;23.108;2022-11-11T15:42:37;50610.66;;;8.85
62930;BMP280;49036;42.782;23.108;2022-11-11T15:45:33;60878.31;;;8.80
62930;BMP280;49036;42.782;23.108;2022-11-11T15:47:59;60070.09;;;8.85
62930;BMP280;49036;42.782;23.108;2022-11-11T15:52:58;61437.72;;;8.97
62930;BMP280;49036;42.782;23.108;2022-11-11T15:55:32;59752.66;;;8.94
62930;BMP280;49036;42.782;23.108;2022-11-11T15:58:15;61965.41;;;8.97
62930;BMP280;49036;42.782;23.108;2022-11-11T16:00:42;63537.72;;;8.95
62930;BMP280;49036;42.782;23.108;2022-11-11T16:03:15;64315.88;;;8.92
62930;BMP280;49036;42.782;23.108;2022-11-11T16:05:41;63261.44;;;8.89
62930;BMP280;49036;42.782;23.108;2022-11-11T16:08:08;63652.03;;;8.88
62930;BMP280;49036;42.782;23.108;2022-11-11T16:10:39;64374.53;;;8.88
62930;BMP280;49036;42.782;23.108;2022-11-11T16:13:16;64187.06;;;8.80
62930;BMP280;49036;42.782;23.108;2022-11-11T16:18:18;49353.94;;;8.76
62930;BMP280;49036;42.782;23.108;2022-11-11T16:23:26;54218.53;;;8.71
62930;BMP280;49036;42.782;23.108;2022-11-11T16:25:52;65256.06;;;8.64
62930;BMP280;49036;42.782;23.108;2022-11-11T16:28:19;69085.16;;;8.54
62930;BMP280;49036;42.782;23.108;2022-11-11T16:30:44;61876.66;;;8.50
62930;BMP280;49036;42.782;23.108;2022-11-11T16:33:32;68659.50;;;8.48
62930;BMP280;49036;42.782;23.108;2022-11-11T16:36:09;68189.91;;;8.52
62930;BMP280;49036;42.782;23.108;2022-11-11T16:38:35;63848.75;;;8.52